sensor_id;sensor_type;location;lat;lon;timestamp;P1;durP1;ratioP1;P2;durP2;ratioP2
22849;SDS011;11591;44.792;10.358;2023-04-27T00:01:34;7.43;;;4.03;;
22849;SDS011;11591;44.792;10.358;2023-04-27T00:04:04;8.18;;;3.83;;
22849;SDS011;11591;44.792;10.358;2023-04-27T00:06:30;6.80;;;3.42;;
22849;SDS011;11591;44.792;10.358;2023-04-27T00:08:56;11.40;;;4.18;;
22849;SDS011;11591;44.792;10.358;2023-04-27T00:11:23;9.15;;;3.95;;
22849;SDS011;11591;44.792;10.358;2023-04-27T00:13:49;5.10;;;3.20;;
22849;SDS011;11591;44.792;10.358;2023-04-27T00:16:15;6.32;;;3.45;;
22849;SDS011;11591;44.792;10.358;2023-04-27T00:18:41;5.80;;;3.17;;
22849;SDS011;11591;44.792;10.358;2023-04-27T00:21:07;4.97;;;3.40;;
22849;SDS011;11591;44.792;10.358;2023-04-27T00:23:34;8.82;;;3.60;;
22849;SDS011;11591;44.792;10.358;2023-04-27T00:26:00;6.53;;;3.80;;
22849;SDS011;11591;44.792;10.358;2023-04-27T00:28:26;5.63;;;2.97;;
22849;SDS011;11591;44.792;10.358;2023-04-27T00:30:51;4.38;;;2.95;;
22849;SDS011;11591;44.792;10.358;2023-04-27T00:33:18;5.30;;;3.25;;
22849;SDS011;11591;44.792;10.358;2023-04-27T00:35:46;8.43;;;3.03;;
22849;SDS011;11591;44.792;10.358;2023-04-27T00:38:12;5.90;;;3.13;;
22849;SDS011;11591;44.792;10.358;2023-04-27T00:40:38;5.07;;;3.38;;
22849;SDS011;11591;44.792;10.358;2023-04-27T00:43:04;4.97;;;3.00;;
22849;SDS011;11591;44.792;10.358;2023-04-27T00:45:30;4.93;;;2.80;;
22849;SDS011;11591;44.792;10.358;2023-04-27T00:47:56;4.55;;;2.90;;
22849;SDS011;11591;44.792;10.358;2023-04-27T00:50:27;6.15;;;3.17;;
22849;SDS011;11591;44.792;10.358;2023-04-27T00:52:54;4.53;;;2.70;;
22849;SDS011;11591;44.792;10.358;2023-04-27T00:55:21;5.97;;;2.90;;
22849;SDS011;11591;44.792;10.358;2023-04-27T00:57:50;5.60;;;2.90;;
22849;SDS011;11591;44.792;10.358;2023-04-27T01:00:15;5.18;;;2.97;;
22849;SDS011;11591;44.792;10.358;2023-04-27T01:02:42;7.28;;;3.17;;
22849;SDS011;11591;44.792;10.358;2023-04-27T01:05:08;6.03;;;2.72;;
22849;SDS011;11591;44.792;10.358;2023-04-27T01:07:37;4.38;;;2.70;;
22849;SDS011;11591;44.792;10.358;2023-04-27T01:10:04;5.82;;;2.92;;
22849;SDS011;11591;44.792;10.358;2023-04-27T01:12:31;7.05;;;3.10;;
22849;SDS011;11591;44.792;10.358;2023-04-27T01:14:57;6.90;;;3.60;;
22849;SDS011;11591;44.792;10.358;2023-04-27T01:17:23;7.13;;;3.72;;
22849;SDS011;11591;44.792;10.358;2023-04-27T01:19:49;8.05;;;3.55;;
22849;SDS011;11591;44.792;10.358;2023-04-27T01:22:16;6.88;;;3.72;;
22849;SDS011;11591;44.792;10.358;2023-04-27T01:24:42;9.85;;;3.47;;
22849;SDS011;11591;44.792;10.358;2023-04-27T01:27:07;9.07;;;3.92;;
22849;SDS011;11591;44.792;10.358;2023-04-27T01:29:35;7.15;;;3.50;;
22849;SDS011;11591;44.792;10.358;2023-04-27T01:32:01;11.25;;;3.58;;
22849;SDS011;11591;44.792;10.358;2023-04-27T01:34:27;4.90;;;3.17;;
22849;SDS011;11591;44.792;10.358;2023-04-27T01:36:52;5.70;;;3.45;;
22849;SDS011;11591;44.792;10.358;2023-04-27T01:39:20;7.55;;;3.88;;
22849;SDS011;11591;44.792;10.358;2023-04-27T01:41:45;6.53;;;4.40;;
22849;SDS011;11591;44.792;10.358;2023-04-27T01:44:11;12.63;;;5.10;;
22849;SDS011;11591;44.792;10.358;2023-04-27T01:46:37;9.57;;;4.93;;
22849;SDS011;11591;44.792;10.358;2023-04-27T01:49:03;12.48;;;5.60;;
22849;SDS011;11591;44.792;10.358;2023-04-27T01:51:28;11.68;;;6.10;;
22849;SDS011;11591;44.792;10.358;2023-04-27T01:53:55;12.38;;;6.88;;
22849;SDS011;11591;44.792;10.358;2023-04-27T01:56:20;13.40;;;6.70;;
22849;SDS011;11591;44.792;10.358;2023-04-27T01:58:46;12.60;;;6.65;;
22849;SDS011;11591;44.792;10.358;2023-04-27T02:01:12;12.88;;;6.65;;
22849;SDS011;11591;44.792;10.358;2023-04-27T02:03:38;13.65;;;7.05;;
22849;SDS011;11591;44.792;10.358;2023-04-27T02:06:04;10.65;;;6.45;;
22849;SDS011;11591;44.792;10.358;2023-04-27T02:08:30;17.95;;;7.43;;
22849;SDS011;11591;44.792;10.358;2023-04-27T02:10:56;15.15;;;7.55;;
22849;SDS011;11591;44.792;10.358;2023-04-27T02:13:22;13.07;;;7.47;;
22849;SDS011;11591;44.792;10.358;2023-04-27T02:15:47;13.70;;;6.85;;
22849;SDS011;11591;44.792;10.358;2023-04-27T02:18:14;12.45;;;6.28;;
22849;SDS011;11591;44.792;10.358;2023-04-27T02:20:39;12.05;;;6.28;;
22849;SDS011;11591;44.792;10.358;2023-04-27T02:23:05;10.23;;;6.20;;
22849;SDS011;11591;44.792;10.358;2023-04-27T02:25:32;9.73;;;5.65;;
22849;SDS011;11591;44.792;10.358;2023-04-27T02:28:00;9.07;;;5.63;;
22849;SDS011;11591;44.792;10.358;2023-04-27T02:30:26;8.70;;;5.28;;
22849;SDS011;11591;44.792;10.358;2023-04-27T02:32:57;9.40;;;5.53;;
22849;SDS011;11591;44.792;10.358;2023-04-27T02:35:24;11.52;;;6.22;;
22849;SDS011;11591;44.792;10.358;2023-04-27T02:37:50;11.93;;;6.07;;
22849;SDS011;11591;44.792;10.358;2023-04-27T02:40:16;12.00;;;6.10;;
22849;SDS011;11591;44.792;10.358;2023-04-27T02:42:42;10.27;;;6.15;;
22849;SDS011;11591;44.792;10.358;2023-04-27T02:45:09;7.75;;;5.85;;
22849;SDS011;11591;44.792;10.358;2023-04-27T02:47:35;12.15;;;6.10;;
22849;SDS011;11591;44.792;10.358;2023-04-27T02:50:01;10.52;;;6.30;;
22849;SDS011;11591;44.792;10.358;2023-04-27T02:52:31;10.77;;;5.85;;
22849;SDS011;11591;44.792;10.358;2023-04-27T02:54:57;11.90;;;6.15;;
22849;SDS011;11591;44.792;10.358;2023-04-27T02:57:23;12.68;;;6.63;;
22849;SDS011;11591;44.792;10.358;2023-04-27T02:59:49;12.05;;;6.45;;
22849;SDS011;11591;44.792;10.358;2023-04-27T03:02:15;9.18;;;6.07;;
22849;SDS011;11591;44.792;10.358;2023-04-27T03:04:40;15.80;;;6.15;;
22849;SDS011;11591;44.792;10.358;2023-04-27T03:07:07;12.68;;;6.45;;
22849;SDS011;11591;44.792;10.358;2023-04-27T03:09:33;10.55;;;6.60;;
22849;SDS011;11591;44.792;10.358;2023-04-27T03:11:59;10.10;;;6.20;;
22849;SDS011;11591;44.792;10.358;2023-04-27T03:14:25;8.65;;;6.00;;
22849;SDS011;11591;44.792;10.358;2023-04-27T03:16:51;9.68;;;6.50;;
22849;SDS011;11591;44.792;10.358;2023-04-27T03:19:17;13.63;;;6.82;;
22849;SDS011;11591;44.792;10.358;2023-04-27T03:21:43;11.52;;;6.47;;
22849;SDS011;11591;44.792;10.358;2023-04-27T03:24:08;11.30;;;6.18;;
22849;SDS011;11591;44.792;10.358;2023-04-27T03:26:34;12.73;;;6.10;;
22849;SDS011;11591;44.792;10.358;2023-04-27T03:29:02;12.05;;;6.15;;
22849;SDS011;11591;44.792;10.358;2023-04-27T03:31:28;8.93;;;5.70;;
22849;SDS011;11591;44.792;10.358;2023-04-27T03:33:54;9.43;;;6.07;;
22849;SDS011;11591;44.792;10.358;2023-04-27T03:36:20;12.73;;;5.97;;
22849;SDS011;11591;44.792;10.358;2023-04-27T03:38:46;10.63;;;5.85;;
22849;SDS011;11591;44.792;10.358;2023-04-27T03:41:12;9.07;;;5.95;;
22849;SDS011;11591;44.792;10.358;2023-04-27T03:43:38;10.05;;;5.95;;
22849;SDS011;11591;44.792;10.358;2023-04-27T03:46:04;11.32;;;5.80;;
22849;SDS011;11591;44.792;10.358;2023-04-27T03:48:30;8.68;;;5.90;;
22849;SDS011;11591;44.792;10.358;2023-04-27T03:50:56;11.05;;;5.45;;
22849;SDS011;11591;44.792;10.358;2023-04-27T03:53:21;11.35;;;5.32;;
22849;SDS011;11591;44.792;10.358;2023-04-27T03:55:48;14.02;;;5.57;;
22849;SDS011;11591;44.792;10.358;2023-04-27T03:58:14;10.30;;;5.07;;
22849;SDS011;11591;44.792;10.358;2023-04-27T04:01:06;7.53;;;5.18;;
22849;SDS011;11591;44.792;10.358;2023-04-27T04:03:35;12.40;;;5.20;;
22849;SDS011;11591;44.792;10.358;2023-04-27T04:06:02;9.50;;;5.45;;
22849;SDS011;11591;44.792;10.358;2023-04-27T04:08:28;12.05;;;5.60;;
22849;SDS011;11591;44.792;10.358;2023-04-27T04:10:55;7.93;;;4.80;;
22849;SDS011;11591;44.792;10.358;2023-04-27T04:13:21;9.05;;;5.10;;
22849;SDS011;11591;44.792;10.358;2023-04-27T04:15:47;10.63;;;5.28;;
22849;SDS011;11591;44.792;10.358;2023-04-27T04:18:13;8.13;;;4.93;;
22849;SDS011;11591;44.792;10.358;2023-04-27T04:20:38;9.52;;;5.47;;
22849;SDS011;11591;44.792;10.358;2023-04-27T04:23:06;8.65;;;4.95;;
22849;SDS011;11591;44.792;10.358;2023-04-27T04:25:32;10.65;;;5.45;;
22849;SDS011;11591;44.792;10.358;2023-04-27T04:27:57;7.97;;;4.88;;
22849;SDS011;11591;44.792;10.358;2023-04-27T04:30:23;7.95;;;5.00;;
22849;SDS011;11591;44.792;10.358;2023-04-27T04:32:49;9.07;;;5.50;;
22849;SDS011;11591;44.792;10.358;2023-04-27T04:35:15;9.68;;;5.75;;
22849;SDS011;11591;44.792;10.358;2023-04-27T04:37:44;14.27;;;6.72;;
22849;SDS011;11591;44.792;10.358;2023-04-27T04:40:11;8.48;;;5.70;;
22849;SDS011;11591;44.792;10.358;2023-04-27T04:42:38;9.95;;;5.35;;
22849;SDS011;11591;44.792;10.358;2023-04-27T04:45:05;10.13;;;6.20;;
22849;SDS011;11591;44.792;10.358;2023-04-27T04:47:32;12.23;;;6.35;;
22849;SDS011;11591;44.792;10.358;2023-04-27T04:49:58;10.48;;;5.68;;
22849;SDS011;11591;44.792;10.358;2023-04-27T04:52:27;9.02;;;5.20;;
22849;SDS011;11591;44.792;10.358;2023-04-27T04:54:53;8.18;;;4.50;;
22849;SDS011;11591;44.792;10.358;2023-04-27T04:57:19;8.27;;;4.20;;
22849;SDS011;11591;44.792;10.358;2023-04-27T04:59:46;8.27;;;3.78;;
22849;SDS011;11591;44.792;10.358;2023-04-27T05:02:12;5.47;;;3.13;;
22849;SDS011;11591;44.792;10.358;2023-04-27T05:04:37;4.32;;;2.92;;
22849;SDS011;11591;44.792;10.358;2023-04-27T05:07:03;4.05;;;2.60;;
22849;SDS011;11591;44.792;10.358;2023-04-27T05:09:30;6.93;;;2.97;;
22849;SDS011;11591;44.792;10.358;2023-04-27T05:11:56;5.55;;;2.67;;
22849;SDS011;11591;44.792;10.358;2023-04-27T05:14:22;6.88;;;2.55;;
22849;SDS011;11591;44.792;10.358;2023-04-27T05:16:47;4.70;;;2.35;;
22849;SDS011;11591;44.792;10.358;2023-04-27T05:19:15;7.30;;;2.22;;
22849;SDS011;11591;44.792;10.358;2023-04-27T05:21:44;6.10;;;2.40;;
22849;SDS011;11591;44.792;10.358;2023-04-27T05:24:11;6.30;;;2.97;;
22849;SDS011;11591;44.792;10.358;2023-04-27T05:26:37;5.20;;;2.20;;
22849;SDS011;11591;44.792;10.358;2023-04-27T05:29:03;4.93;;;2.42;;
22849;SDS011;11591;44.792;10.358;2023-04-27T05:31:29;5.50;;;2.30;;
22849;SDS011;11591;44.792;10.358;2023-04-27T05:33:54;4.30;;;1.85;;
22849;SDS011;11591;44.792;10.358;2023-04-27T05:36:20;7.18;;;2.13;;
22849;SDS011;11591;44.792;10.358;2023-04-27T05:38:46;6.13;;;2.10;;
22849;SDS011;11591;44.792;10.358;2023-04-27T05:41:12;4.53;;;1.90;;
22849;SDS011;11591;44.792;10.358;2023-04-27T05:43:38;3.60;;;1.88;;
22849;SDS011;11591;44.792;10.358;2023-04-27T05:46:03;4.97;;;1.80;;
22849;SDS011;11591;44.792;10.358;2023-04-27T05:48:29;5.30;;;1.85;;
22849;SDS011;11591;44.792;10.358;2023-04-27T05:51:02;4.35;;;2.13;;
22849;SDS011;11591;44.792;10.358;2023-04-27T05:53:28;4.75;;;1.77;;
22849;SDS011;11591;44.792;10.358;2023-04-27T05:55:57;4.53;;;1.90;;
22849;SDS011;11591;44.792;10.358;2023-04-27T05:58:25;3.65;;;1.73;;
22849;SDS011;11591;44.792;10.358;2023-04-27T06:00:54;6.97;;;2.25;;
22849;SDS011;11591;44.792;10.358;2023-04-27T06:03:21;6.75;;;1.88;;
22849;SDS011;11591;44.792;10.358;2023-04-27T06:05:52;3.13;;;1.83;;
22849;SDS011;11591;44.792;10.358;2023-04-27T06:08:24;5.15;;;2.28;;
22849;SDS011;11591;44.792;10.358;2023-04-27T06:10:51;6.75;;;1.65;;
22849;SDS011;11591;44.792;10.358;2023-04-27T06:13:18;3.90;;;1.85;;
22849;SDS011;11591;44.792;10.358;2023-04-27T06:15:44;3.25;;;1.83;;
22849;SDS011;11591;44.792;10.358;2023-04-27T06:18:10;3.28;;;1.65;;
22849;SDS011;11591;44.792;10.358;2023-04-27T06:20:37;3.17;;;1.73;;
22849;SDS011;11591;44.792;10.358;2023-04-27T06:23:02;4.00;;;1.80;;
22849;SDS011;11591;44.792;10.358;2023-04-27T06:25:28;3.45;;;2.00;;
22849;SDS011;11591;44.792;10.358;2023-04-27T06:27:55;6.57;;;1.65;;
22849;SDS011;11591;44.792;10.358;2023-04-27T06:30:21;3.05;;;1.65;;
22849;SDS011;11591;44.792;10.358;2023-04-27T06:32:48;5.78;;;1.95;;
22849;SDS011;11591;44.792;10.358;2023-04-27T06:35:15;6.05;;;2.20;;
22849;SDS011;11591;44.792;10.358;2023-04-27T06:37:41;6.95;;;3.05;;
22849;SDS011;11591;44.792;10.358;2023-04-27T06:40:07;8.27;;;3.40;;
22849;SDS011;11591;44.792;10.358;2023-04-27T06:42:33;9.23;;;3.63;;
22849;SDS011;11591;44.792;10.358;2023-04-27T06:44:59;10.30;;;4.18;;
22849;SDS011;11591;44.792;10.358;2023-04-27T06:47:25;13.63;;;5.25;;
22849;SDS011;11591;44.792;10.358;2023-04-27T06:49:51;11.38;;;5.13;;
22849;SDS011;11591;44.792;10.358;2023-04-27T06:52:17;9.35;;;4.40;;
22849;SDS011;11591;44.792;10.358;2023-04-27T06:54:43;13.40;;;5.97;;
22849;SDS011;11591;44.792;10.358;2023-04-27T06:57:09;8.60;;;3.88;;
22849;SDS011;11591;44.792;10.358;2023-04-27T06:59:35;13.45;;;3.40;;
22849;SDS011;11591;44.792;10.358;2023-04-27T07:02:00;10.52;;;3.85;;
22849;SDS011;11591;44.792;10.358;2023-04-27T07:04:26;12.05;;;3.85;;
22849;SDS011;11591;44.792;10.358;2023-04-27T07:06:52;7.63;;;4.72;;
22849;SDS011;11591;44.792;10.358;2023-04-27T07:09:18;6.45;;;4.15;;
22849;SDS011;11591;44.792;10.358;2023-04-27T07:11:43;9.13;;;3.80;;
22849;SDS011;11591;44.792;10.358;2023-04-27T07:14:09;5.78;;;3.63;;
22849;SDS011;11591;44.792;10.358;2023-04-27T07:16:35;6.95;;;4.10;;
22849;SDS011;11591;44.792;10.358;2023-04-27T07:19:01;6.80;;;3.67;;
22849;SDS011;11591;44.792;10.358;2023-04-27T07:21:27;7.70;;;3.85;;
22849;SDS011;11591;44.792;10.358;2023-04-27T07:23:52;8.50;;;3.60;;
22849;SDS011;11591;44.792;10.358;2023-04-27T07:26:18;11.15;;;4.22;;
22849;SDS011;11591;44.792;10.358;2023-04-27T07:28:45;11.73;;;4.32;;
22849;SDS011;11591;44.792;10.358;2023-04-27T07:31:11;10.65;;;4.05;;
22849;SDS011;11591;44.792;10.358;2023-04-27T07:33:38;8.68;;;4.38;;
22849;SDS011;11591;44.792;10.358;2023-04-27T07:36:04;8.95;;;4.60;;
22849;SDS011;11591;44.792;10.358;2023-04-27T07:38:30;6.72;;;4.50;;
22849;SDS011;11591;44.792;10.358;2023-04-27T07:40:59;9.52;;;4.93;;
22849;SDS011;11591;44.792;10.358;2023-04-27T07:43:27;10.60;;;4.90;;
22849;SDS011;11591;44.792;10.358;2023-04-27T07:45:53;11.32;;;5.57;;
22849;SDS011;11591;44.792;10.358;2023-04-27T07:48:19;12.43;;;5.07;;
22849;SDS011;11591;44.792;10.358;2023-04-27T07:50:46;9.75;;;5.80;;
22849;SDS011;11591;44.792;10.358;2023-04-27T07:53:12;10.40;;;6.00;;
22849;SDS011;11591;44.792;10.358;2023-04-27T07:55:38;10.55;;;5.50;;
22849;SDS011;11591;44.792;10.358;2023-04-27T07:58:03;12.02;;;6.25;;
22849;SDS011;11591;44.792;10.358;2023-04-27T08:00:30;11.85;;;5.75;;
22849;SDS011;11591;44.792;10.358;2023-04-27T08:02:55;14.20;;;6.88;;
22849;SDS011;11591;44.792;10.358;2023-04-27T08:05:21;13.10;;;6.13;;
22849;SDS011;11591;44.792;10.358;2023-04-27T08:07:47;19.90;;;9.68;;
22849;SDS011;11591;44.792;10.358;2023-04-27T08:10:13;16.50;;;9.93;;
22849;SDS011;11591;44.792;10.358;2023-04-27T08:12:40;19.75;;;11.05;;
22849;SDS011;11591;44.792;10.358;2023-04-27T08:15:06;15.10;;;7.53;;
22849;SDS011;11591;44.792;10.358;2023-04-27T08:17:32;13.27;;;6.32;;
22849;SDS011;11591;44.792;10.358;2023-04-27T08:19:58;14.10;;;6.57;;
22849;SDS011;11591;44.792;10.358;2023-04-27T08:22:23;20.13;;;8.15;;
22849;SDS011;11591;44.792;10.358;2023-04-27T08:24:49;13.77;;;8.25;;
22849;SDS011;11591;44.792;10.358;2023-04-27T08:27:15;25.75;;;16.27;;
22849;SDS011;11591;44.792;10.358;2023-04-27T08:29:44;17.30;;;8.32;;
22849;SDS011;11591;44.792;10.358;2023-04-27T08:32:13;20.73;;;8.13;;
22849;SDS011;11591;44.792;10.358;2023-04-27T08:34:40;14.90;;;7.30;;
22849;SDS011;11591;44.792;10.358;2023-04-27T08:37:06;15.45;;;8.75;;
22849;SDS011;11591;44.792;10.358;2023-04-27T08:39:32;13.98;;;8.60;;
22849;SDS011;11591;44.792;10.358;2023-04-27T08:41:58;24.75;;;14.77;;
22849;SDS011;11591;44.792;10.358;2023-04-27T08:44:24;15.25;;;8.95;;
22849;SDS011;11591;44.792;10.358;2023-04-27T08:46:50;10.18;;;6.63;;
22849;SDS011;11591;44.792;10.358;2023-04-27T08:49:16;14.20;;;9.02;;
22849;SDS011;11591;44.792;10.358;2023-04-27T08:51:42;11.02;;;6.80;;
22849;SDS011;11591;44.792;10.358;2023-04-27T08:54:08;10.23;;;6.25;;
22849;SDS011;11591;44.792;10.358;2023-04-27T08:56:34;15.30;;;6.60;;
22849;SDS011;11591;44.792;10.358;2023-04-27T08:59:00;9.43;;;6.47;;
22849;SDS011;11591;44.792;10.358;2023-04-27T09:01:29;12.43;;;7.15;;
22849;SDS011;11591;44.792;10.358;2023-04-27T09:03:57;16.00;;;7.22;;
22849;SDS011;11591;44.792;10.358;2023-04-27T09:06:30;10.95;;;7.28;;
22849;SDS011;11591;44.792;10.358;2023-04-27T09:08:59;12.32;;;7.20;;
22849;SDS011;11591;44.792;10.358;2023-04-27T09:13:53;10.15;;;7.18;;
22849;SDS011;11591;44.792;10.358;2023-04-27T09:16:22;13.05;;;7.70;;
22849;SDS011;11591;44.792;10.358;2023-04-27T09:18:50;11.98;;;7.13;;
22849;SDS011;11591;44.792;10.358;2023-04-27T09:24:07;15.50;;;8.65;;
22849;SDS011;11591;44.792;10.358;2023-04-27T09:26:36;14.02;;;7.90;;
22849;SDS011;11591;44.792;10.358;2023-04-27T09:29:02;14.23;;;7.72;;
22849;SDS011;11591;44.792;10.358;2023-04-27T09:31:32;15.10;;;8.75;;
22849;SDS011;11591;44.792;10.358;2023-04-27T09:33:58;13.15;;;7.70;;
22849;SDS011;11591;44.792;10.358;2023-04-27T09:36:24;11.02;;;7.45;;
22849;SDS011;11591;44.792;10.358;2023-04-27T09:38:50;12.73;;;7.95;;
22849;SDS011;11591;44.792;10.358;2023-04-27T09:41:17;13.23;;;9.00;;
22849;SDS011;11591;44.792;10.358;2023-04-27T09:43:43;11.05;;;8.05;;
22849;SDS011;11591;44.792;10.358;2023-04-27T09:46:12;14.13;;;7.35;;
22849;SDS011;11591;44.792;10.358;2023-04-27T09:48:39;13.15;;;8.10;;
22849;SDS011;11591;44.792;10.358;2023-04-27T09:51:06;12.80;;;8.40;;
22849;SDS011;11591;44.792;10.358;2023-04-27T09:53:36;12.52;;;8.40;;
22849;SDS011;11591;44.792;10.358;2023-04-27T10:02:02;15.63;;;9.48;;
22849;SDS011;11591;44.792;10.358;2023-04-27T10:07:11;15.95;;;8.30;;
22849;SDS011;11591;44.792;10.358;2023-04-27T10:09:42;16.52;;;8.18;;
22849;SDS011;11591;44.792;10.358;2023-04-27T10:14:53;13.25;;;7.72;;
22849;SDS011;11591;44.792;10.358;2023-04-27T10:17:30;12.10;;;7.68;;
22849;SDS011;11591;44.792;10.358;2023-04-27T10:20:06;13.18;;;8.35;;
22849;SDS011;11591;44.792;10.358;2023-04-27T10:28:05;10.25;;;7.13;;
22849;SDS011;11591;44.792;10.358;2023-04-27T10:30:35;11.35;;;7.45;;
22849;SDS011;11591;44.792;10.358;2023-04-27T10:33:06;12.27;;;6.60;;
22849;SDS011;11591;44.792;10.358;2023-04-27T10:35:34;12.05;;;6.85;;
22849;SDS011;11591;44.792;10.358;2023-04-27T10:38:08;9.27;;;6.65;;
22849;SDS011;11591;44.792;10.358;2023-04-27T10:40:34;10.93;;;6.88;;
22849;SDS011;11591;44.792;10.358;2023-04-27T10:43:11;14.00;;;7.38;;
22849;SDS011;11591;44.792;10.358;2023-04-27T10:45:38;10.02;;;7.07;;
22849;SDS011;11591;44.792;10.358;2023-04-27T10:48:05;11.27;;;7.68;;
22849;SDS011;11591;44.792;10.358;2023-04-27T10:50:31;13.77;;;7.60;;
22849;SDS011;11591;44.792;10.358;2023-04-27T10:53:04;11.07;;;6.97;;
22849;SDS011;11591;44.792;10.358;2023-04-27T10:55:31;12.82;;;6.40;;
22849;SDS011;11591;44.792;10.358;2023-04-27T10:57:58;8.63;;;5.57;;
22849;SDS011;11591;44.792;10.358;2023-04-27T11:00:26;8.15;;;5.80;;
22849;SDS011;11591;44.792;10.358;2023-04-27T11:03:08;8.77;;;5.90;;
22849;SDS011;11591;44.792;10.358;2023-04-27T11:05:38;10.27;;;7.30;;
22849;SDS011;11591;44.792;10.358;2023-04-27T11:08:09;11.07;;;7.40;;
22849;SDS011;11591;44.792;10.358;2023-04-27T11:13:15;14.68;;;8.95;;
22849;SDS011;11591;44.792;10.358;2023-04-27T11:18:19;19.35;;;11.00;;
22849;SDS011;11591;44.792;10.358;2023-04-27T11:20:47;10.23;;;7.18;;
22849;SDS011;11591;44.792;10.358;2023-04-27T11:23:24;13.05;;;6.97;;
22849;SDS011;11591;44.792;10.358;2023-04-27T11:25:50;11.65;;;6.95;;
22849;SDS011;11591;44.792;10.358;2023-04-27T11:28:17;9.75;;;6.20;;
22849;SDS011;11591;44.792;10.358;2023-04-27T11:30:44;9.13;;;5.68;;
22849;SDS011;11591;44.792;10.358;2023-04-27T11:33:10;9.27;;;5.90;;
22849;SDS011;11591;44.792;10.358;2023-04-27T11:35:36;9.32;;;6.25;;
22849;SDS011;11591;44.792;10.358;2023-04-27T11:38:03;11.23;;;6.30;;
22849;SDS011;11591;44.792;10.358;2023-04-27T11:40:29;12.98;;;5.57;;
22849;SDS011;11591;44.792;10.358;2023-04-27T11:42:59;8.90;;;5.60;;
22849;SDS011;11591;44.792;10.358;2023-04-27T11:45:28;10.10;;;5.55;;
22849;SDS011;11591;44.792;10.358;2023-04-27T11:47:54;8.18;;;5.68;;
22849;SDS011;11591;44.792;10.358;2023-04-27T11:50:24;7.70;;;4.85;;
22849;SDS011;11591;44.792;10.358;2023-04-27T11:52:51;22.75;;;12.88;;
22849;SDS011;11591;44.792;10.358;2023-04-27T11:55:19;22.98;;;13.57;;
22849;SDS011;11591;44.792;10.358;2023-04-27T11:57:46;27.20;;;17.50;;
22849;SDS011;11591;44.792;10.358;2023-04-27T12:00:12;12.18;;;7.85;;
22849;SDS011;11591;44.792;10.358;2023-04-27T12:02:40;10.20;;;6.40;;
22849;SDS011;11591;44.792;10.358;2023-04-27T12:05:06;10.52;;;6.35;;
22849;SDS011;11591;44.792;10.358;2023-04-27T12:07:33;11.48;;;7.10;;
22849;SDS011;11591;44.792;10.358;2023-04-27T12:09:59;8.35;;;6.22;;
22849;SDS011;11591;44.792;10.358;2023-04-27T12:12:25;8.50;;;5.53;;
22849;SDS011;11591;44.792;10.358;2023-04-27T12:14:51;6.68;;;5.05;;
22849;SDS011;11591;44.792;10.358;2023-04-27T12:17:17;7.55;;;4.57;;
22849;SDS011;11591;44.792;10.358;2023-04-27T12:19:43;12.02;;;8.27;;
22849;SDS011;11591;44.792;10.358;2023-04-27T12:22:09;9.65;;;7.15;;
22849;SDS011;11591;44.792;10.358;2023-04-27T12:24:35;27.00;;;12.63;;
22849;SDS011;11591;44.792;10.358;2023-04-27T12:27:01;11.70;;;5.05;;
22849;SDS011;11591;44.792;10.358;2023-04-27T12:29:28;9.95;;;4.72;;
22849;SDS011;11591;44.792;10.358;2023-04-27T12:31:57;7.40;;;5.05;;
22849;SDS011;11591;44.792;10.358;2023-04-27T12:34:23;14.50;;;5.70;;
22849;SDS011;11591;44.792;10.358;2023-04-27T12:36:49;8.32;;;5.45;;
22849;SDS011;11591;44.792;10.358;2023-04-27T12:39:16;11.52;;;5.53;;
22849;SDS011;11591;44.792;10.358;2023-04-27T12:41:44;11.40;;;5.63;;
22849;SDS011;11591;44.792;10.358;2023-04-27T12:44:11;7.35;;;5.15;;
22849;SDS011;11591;44.792;10.358;2023-04-27T12:46:38;9.18;;;5.25;;
22849;SDS011;11591;44.792;10.358;2023-04-27T12:49:04;8.68;;;4.40;;
22849;SDS011;11591;44.792;10.358;2023-04-27T12:51:30;6.47;;;4.32;;
22849;SDS011;11591;44.792;10.358;2023-04-27T12:54:00;9.50;;;4.25;;
22849;SDS011;11591;44.792;10.358;2023-04-27T12:56:27;10.25;;;4.50;;
22849;SDS011;11591;44.792;10.358;2023-04-27T12:58:53;10.00;;;4.20;;
22849;SDS011;11591;44.792;10.358;2023-04-27T13:01:19;8.70;;;4.68;;
22849;SDS011;11591;44.792;10.358;2023-04-27T13:03:50;7.25;;;4.32;;
22849;SDS011;11591;44.792;10.358;2023-04-27T13:06:17;9.43;;;4.70;;
22849;SDS011;11591;44.792;10.358;2023-04-27T13:08:43;8.43;;;4.93;;
22849;SDS011;11591;44.792;10.358;2023-04-27T13:11:09;12.85;;;6.10;;
22849;SDS011;11591;44.792;10.358;2023-04-27T13:13:35;8.38;;;4.78;;
22849;SDS011;11591;44.792;10.358;2023-04-27T13:16:01;7.90;;;4.35;;
22849;SDS011;11591;44.792;10.358;2023-04-27T13:18:28;7.20;;;4.07;;
22849;SDS011;11591;44.792;10.358;2023-04-27T13:20:57;6.47;;;4.00;;
22849;SDS011;11591;44.792;10.358;2023-04-27T13:23:23;8.65;;;4.75;;
22849;SDS011;11591;44.792;10.358;2023-04-27T13:25:50;7.13;;;3.63;;
22849;SDS011;11591;44.792;10.358;2023-04-27T13:28:17;10.15;;;4.47;;
22849;SDS011;11591;44.792;10.358;2023-04-27T13:30:42;6.93;;;4.18;;
22849;SDS011;11591;44.792;10.358;2023-04-27T13:33:09;11.30;;;4.70;;
22849;SDS011;11591;44.792;10.358;2023-04-27T13:35:39;6.70;;;4.35;;
22849;SDS011;11591;44.792;10.358;2023-04-27T13:38:05;7.70;;;3.72;;
22849;SDS011;11591;44.792;10.358;2023-04-27T13:40:30;5.22;;;3.75;;
22849;SDS011;11591;44.792;10.358;2023-04-27T13:42:56;5.88;;;3.50;;
22849;SDS011;11591;44.792;10.358;2023-04-27T13:45:22;10.15;;;3.97;;
22849;SDS011;11591;44.792;10.358;2023-04-27T13:47:48;6.93;;;4.15;;
22849;SDS011;11591;44.792;10.358;2023-04-27T13:50:14;12.10;;;4.00;;
22849;SDS011;11591;44.792;10.358;2023-04-27T13:52:40;5.28;;;3.45;;
22849;SDS011;11591;44.792;10.358;2023-04-27T13:55:06;6.03;;;3.10;;
22849;SDS011;11591;44.792;10.358;2023-04-27T13:57:34;5.45;;;3.30;;
22849;SDS011;11591;44.792;10.358;2023-04-27T14:00:00;9.00;;;3.55;;
22849;SDS011;11591;44.792;10.358;2023-04-27T14:02:27;6.38;;;3.25;;
22849;SDS011;11591;44.792;10.358;2023-04-27T14:04:54;5.07;;;2.40;;
22849;SDS011;11591;44.792;10.358;2023-04-27T14:07:20;4.65;;;2.88;;
22849;SDS011;11591;44.792;10.358;2023-04-27T14:09:46;7.38;;;3.08;;
22849;SDS011;11591;44.792;10.358;2023-04-27T14:12:12;5.45;;;2.88;;
22849;SDS011;11591;44.792;10.358;2023-04-27T14:14:38;5.50;;;2.75;;
22849;SDS011;11591;44.792;10.358;2023-04-27T14:17:04;5.43;;;2.50;;
22849;SDS011;11591;44.792;10.358;2023-04-27T14:19:31;5.60;;;2.58;;
22849;SDS011;11591;44.792;10.358;2023-04-27T14:21:57;8.40;;;2.60;;
22849;SDS011;11591;44.792;10.358;2023-04-27T14:24:23;7.28;;;2.75;;
22849;SDS011;11591;44.792;10.358;2023-04-27T14:26:49;8.18;;;3.35;;
22849;SDS011;11591;44.792;10.358;2023-04-27T14:29:18;8.35;;;3.10;;
22849;SDS011;11591;44.792;10.358;2023-04-27T14:31:44;6.72;;;3.47;;
22849;SDS011;11591;44.792;10.358;2023-04-27T14:34:11;8.55;;;4.18;;
22849;SDS011;11591;44.792;10.358;2023-04-27T14:36:39;9.98;;;4.80;;
22849;SDS011;11591;44.792;10.358;2023-04-27T14:39:05;4.82;;;2.95;;
22849;SDS011;11591;44.792;10.358;2023-04-27T14:41:32;5.75;;;2.80;;
22849;SDS011;11591;44.792;10.358;2023-04-27T14:43:59;3.90;;;2.63;;
22849;SDS011;11591;44.792;10.358;2023-04-27T14:46:25;4.45;;;2.97;;
22849;SDS011;11591;44.792;10.358;2023-04-27T14:48:51;5.30;;;2.95;;
22849;SDS011;11591;44.792;10.358;2023-04-27T14:51:17;4.10;;;2.58;;
22849;SDS011;11591;44.792;10.358;2023-04-27T14:53:43;4.50;;;2.90;;